Карточка аэропорта UAKK

Внимание!
Информация на этой странице в стадии наполнения.
Если вы не увидели какой-то информации, или заметили неточность - пожалуйста сообщите нам!
Спасибо!
Команда RU-STAFF
Название аэропортаКараганда
Название аэропорта (англ.)Karaganda
Превышение1768 ft. (538.9 m.)
Координаты49°40.302', 73°20.118'
Высота перехода10000ft
Эшелон переходаFL120, QNH<733:FL130
Коды ответчика0630-0637, 7220-7227
Зона ОрВДАстана РПИ (UACN)
Данные METARUAKK 200430Z 30003MPS 220V340 9999 SCT050CB 22/16 Q1003 NOSIG RMK QFE706/0941
Проноз погоды (TAF)UAKK 192303Z 2000/2024 VRB02MPS 5000 BR SCT030CB BKN080 TX23/2009Z TN15/2001Z TEMPO 2000/2003 20003MPS 1000 -SHRA BR BKN030CB FM200300 27004MPS 9999 BKN030CB BKN080 TEMPO 2003/2014 22005MPS 3100 -TSRA BR BKN011 BKN020CB BECMG 2014/2016 VRB02MPS TEMPO 2014/2024 18003MPS 3100 -SHRA BR BKN012 BKN030CB
NOTAMshow/hide NOTAM
AWOS   TABLE

Информация о ВПП

ВПП Длина ВПП (м.) Покрытие Курс ВПП Частота ILS
233601Железобетон230111.7
053601Железобетон50109.9

Диспетчерские позиции




Спутниковое изображение